sensor_id;sensor_type;location;lat;lon;timestamp;pressure;altitude;pressure_sealevel;temperature;humidity
53526;BME280;40551;50.478;19.378;2022-07-22T00:02:03;97973.58;;;16.77;68.50
53526;BME280;40551;50.478;19.378;2022-07-22T00:04:34;97969.84;;;16.78;68.83
53526;BME280;40551;50.478;19.378;2022-07-22T00:07:06;97971.37;;;16.82;68.76
53526;BME280;40551;50.478;19.378;2022-07-22T00:09:38;97970.58;;;16.81;68.65
53526;BME280;40551;50.478;19.378;2022-07-22T00:12:10;97972.34;;;16.82;68.91
53526;BME280;40551;50.478;19.378;2022-07-22T00:14:42;97976.90;;;16.85;68.97
53526;BME280;40551;50.478;19.378;2022-07-22T00:17:14;97980.59;;;16.89;69.07
53526;BME280;40551;50.478;19.378;2022-07-22T00:19:45;97979.17;;;16.92;68.92
53526;BME280;40551;50.478;19.378;2022-07-22T00:22:17;97984.98;;;16.90;68.38
53526;BME280;40551;50.478;19.378;2022-07-22T00:24:50;97981.70;;;16.85;68.35
53526;BME280;40551;50.478;19.378;2022-07-22T00:27:21;97980.21;;;16.78;68.31
53526;BME280;40551;50.478;19.378;2022-07-22T00:29:53;97986.90;;;16.68;68.29
53526;BME280;40551;50.478;19.378;2022-07-22T00:32:25;97990.36;;;16.63;68.86
53526;BME280;40551;50.478;19.378;2022-07-22T00:34:56;97988.06;;;16.65;69.09
53526;BME280;40551;50.478;19.378;2022-07-22T00:37:28;97985.23;;;16.65;69.10
53526;BME280;40551;50.478;19.378;2022-07-22T00:40:00;97978.75;;;16.57;68.72
53526;BME280;40551;50.478;19.378;2022-07-22T00:42:31;97980.10;;;16.50;68.87
53526;BME280;40551;50.478;19.378;2022-07-22T00:45:09;97991.20;;;16.48;69.23
53526;BME280;40551;50.478;19.378;2022-07-22T00:47:42;97987.58;;;16.50;69.46
53526;BME280;40551;50.478;19.378;2022-07-22T00:50:14;97985.81;;;16.54;69.49
53526;BME280;40551;50.478;19.378;2022-07-22T00:52:48;97986.61;;;16.59;69.52
53526;BME280;40551;50.478;19.378;2022-07-22T00:55:20;97987.19;;;16.62;69.27
53526;BME280;40551;50.478;19.378;2022-07-22T00:57:51;97991.90;;;16.65;69.18
53526;BME280;40551;50.478;19.378;2022-07-22T01:00:23;97996.49;;;16.67;69.21
53526;BME280;40551;50.478;19.378;2022-07-22T01:02:55;98001.55;;;16.70;69.25
53526;BME280;40551;50.478;19.378;2022-07-22T01:05:26;97998.01;;;16.72;69.25
53526;BME280;40551;50.478;19.378;2022-07-22T01:07:58;97992.52;;;16.76;69.20
53526;BME280;40551;50.478;19.378;2022-07-22T01:10:30;97998.22;;;16.70;68.85
53526;BME280;40551;50.478;19.378;2022-07-22T01:13:01;98005.84;;;16.71;69.02
53526;BME280;40551;50.478;19.378;2022-07-22T01:15:33;98010.39;;;16.76;69.13
53526;BME280;40551;50.478;19.378;2022-07-22T01:18:05;98009.35;;;16.77;69.28
53526;BME280;40551;50.478;19.378;2022-07-22T01:20:37;98016.21;;;16.80;69.18
53526;BME280;40551;50.478;19.378;2022-07-22T01:23:10;98025.94;;;16.79;69.22
53526;BME280;40551;50.478;19.378;2022-07-22T01:25:42;98025.34;;;16.83;69.29
53526;BME280;40551;50.478;19.378;2022-07-22T01:28:14;98022.48;;;16.85;69.16
53526;BME280;40551;50.478;19.378;2022-07-22T01:30:45;98015.66;;;16.74;68.64
53526;BME280;40551;50.478;19.378;2022-07-22T01:33:17;98024.50;;;16.65;68.90
53526;BME280;40551;50.478;19.378;2022-07-22T01:35:49;98036.52;;;16.65;69.13
53526;BME280;40551;50.478;19.378;2022-07-22T01:38:21;98039.02;;;16.70;69.35
53526;BME280;40551;50.478;19.378;2022-07-22T01:40:53;98030.39;;;16.72;69.47
53526;BME280;40551;50.478;19.378;2022-07-22T01:43:24;98028.59;;;16.66;69.03
53526;BME280;40551;50.478;19.378;2022-07-22T01:45:56;98026.56;;;16.61;69.16
53526;BME280;40551;50.478;19.378;2022-07-22T01:48:28;98021.13;;;16.53;69.03
53526;BME280;40551;50.478;19.378;2022-07-22T01:51:00;98026.58;;;16.39;69.08
53526;BME280;40551;50.478;19.378;2022-07-22T01:53:36;98028.33;;;16.36;69.26
53526;BME280;40551;50.478;19.378;2022-07-22T01:56:10;98029.98;;;16.40;69.51
53526;BME280;40551;50.478;19.378;2022-07-22T01:58:49;98026.83;;;16.44;69.54
53526;BME280;40551;50.478;19.378;2022-07-22T02:01:24;98032.20;;;16.49;69.68
53526;BME280;40551;50.478;19.378;2022-07-22T02:03:56;98026.88;;;16.51;69.76
53526;BME280;40551;50.478;19.378;2022-07-22T02:06:28;98026.66;;;16.49;69.52
53526;BME280;40551;50.478;19.378;2022-07-22T02:09:01;98029.88;;;16.48;69.55
53526;BME280;40551;50.478;19.378;2022-07-22T02:11:52;98034.67;;;16.47;69.54
53526;BME280;40551;50.478;19.378;2022-07-22T02:14:24;98041.23;;;16.47;69.67
53526;BME280;40551;50.478;19.378;2022-07-22T02:16:55;98041.09;;;16.48;69.67
53526;BME280;40551;50.478;19.378;2022-07-22T02:19:27;98031.38;;;16.42;69.40
53526;BME280;40551;50.478;19.378;2022-07-22T02:21:59;98030.41;;;16.32;69.25
53526;BME280;40551;50.478;19.378;2022-07-22T02:24:30;98023.55;;;16.27;69.67
53526;BME280;40551;50.478;19.378;2022-07-22T02:27:03;98019.30;;;16.25;69.52
53526;BME280;40551;50.478;19.378;2022-07-22T02:29:35;98023.15;;;16.18;69.42
53526;BME280;40551;50.478;19.378;2022-07-22T02:32:07;98024.63;;;16.17;69.76
53526;BME280;40551;50.478;19.378;2022-07-22T02:34:40;98025.22;;;16.15;69.63
53526;BME280;40551;50.478;19.378;2022-07-22T02:37:12;98026.10;;;16.12;69.77
53526;BME280;40551;50.478;19.378;2022-07-22T02:39:44;98030.50;;;16.13;69.99
53526;BME280;40551;50.478;19.378;2022-07-22T02:42:17;98028.54;;;16.15;70.03
53526;BME280;40551;50.478;19.378;2022-07-22T02:44:49;98030.27;;;16.17;70.07
53526;BME280;40551;50.478;19.378;2022-07-22T02:47:21;98034.51;;;16.13;69.67
53526;BME280;40551;50.478;19.378;2022-07-22T02:49:53;98040.74;;;16.11;69.74
53526;BME280;40551;50.478;19.378;2022-07-22T02:52:25;98042.26;;;16.06;69.70
53526;BME280;40551;50.478;19.378;2022-07-22T02:54:56;98039.27;;;16.00;69.91
53526;BME280;40551;50.478;19.378;2022-07-22T02:57:28;98035.54;;;15.94;69.96
53526;BME280;40551;50.478;19.378;2022-07-22T03:00:00;98036.15;;;15.90;70.14
53526;BME280;40551;50.478;19.378;2022-07-22T03:02:33;98035.04;;;15.92;70.48
53526;BME280;40551;50.478;19.378;2022-07-22T03:05:07;98039.11;;;15.97;70.62
53526;BME280;40551;50.478;19.378;2022-07-22T03:07:43;98041.28;;;15.99;70.61
53526;BME280;40551;50.478;19.378;2022-07-22T03:10:15;98039.41;;;16.01;70.55
53526;BME280;40551;50.478;19.378;2022-07-22T03:12:47;98042.41;;;16.02;70.72
53526;BME280;40551;50.478;19.378;2022-07-22T03:15:20;98049.60;;;16.05;70.82
53526;BME280;40551;50.478;19.378;2022-07-22T03:17:52;98057.41;;;16.09;70.87
53526;BME280;40551;50.478;19.378;2022-07-22T03:20:23;98058.75;;;16.16;70.88
53526;BME280;40551;50.478;19.378;2022-07-22T03:22:55;98059.05;;;16.23;70.86
53526;BME280;40551;50.478;19.378;2022-07-22T03:25:27;98060.12;;;16.24;70.68
53526;BME280;40551;50.478;19.378;2022-07-22T03:28:01;98062.05;;;16.27;70.77
53526;BME280;40551;50.478;19.378;2022-07-22T03:30:33;98067.59;;;16.38;71.15
53526;BME280;40551;50.478;19.378;2022-07-22T03:33:04;98071.58;;;16.57;71.45
53526;BME280;40551;50.478;19.378;2022-07-22T03:35:39;98071.50;;;16.84;71.46
53526;BME280;40551;50.478;19.378;2022-07-22T03:38:11;98070.20;;;17.05;70.81
53526;BME280;40551;50.478;19.378;2022-07-22T03:40:43;98080.16;;;17.23;70.41
53526;BME280;40551;50.478;19.378;2022-07-22T03:43:15;98076.36;;;17.42;70.36
53526;BME280;40551;50.478;19.378;2022-07-22T03:45:47;98078.65;;;17.63;70.03
53526;BME280;40551;50.478;19.378;2022-07-22T03:48:19;98082.50;;;17.81;69.83
53526;BME280;40551;50.478;19.378;2022-07-22T03:50:51;98083.73;;;18.09;69.71
53526;BME280;40551;50.478;19.378;2022-07-22T03:53:22;98085.39;;;18.41;69.42
53526;BME280;40551;50.478;19.378;2022-07-22T03:55:54;98078.91;;;18.76;69.16
53526;BME280;40551;50.478;19.378;2022-07-22T03:58:26;98080.52;;;19.08;68.25
53526;BME280;40551;50.478;19.378;2022-07-22T04:00:58;98079.57;;;19.44;68.07
53526;BME280;40551;50.478;19.378;2022-07-22T04:03:30;98090.23;;;19.81;67.19
53526;BME280;40551;50.478;19.378;2022-07-22T04:06:10;98101.25;;;20.00;65.83
53526;BME280;40551;50.478;19.378;2022-07-22T04:08:49;98096.96;;;20.12;65.34
53526;BME280;40551;50.478;19.378;2022-07-22T04:11:20;98099.39;;;20.16;64.74
53526;BME280;40551;50.478;19.378;2022-07-22T04:13:53;98097.40;;;20.21;64.68
53526;BME280;40551;50.478;19.378;2022-07-22T04:16:24;98094.73;;;20.27;64.35
53526;BME280;40551;50.478;19.378;2022-07-22T04:19:01;98089.54;;;20.29;64.16
53526;BME280;40551;50.478;19.378;2022-07-22T04:21:50;98093.45;;;20.30;64.02
53526;BME280;40551;50.478;19.378;2022-07-22T04:24:24;98100.85;;;20.60;64.93
53526;BME280;40551;50.478;19.378;2022-07-22T04:26:55;98089.98;;;21.19;65.18
53526;BME280;40551;50.478;19.378;2022-07-22T04:29:28;98090.52;;;21.76;64.30
53526;BME280;40551;50.478;19.378;2022-07-22T04:31:59;98088.60;;;22.26;63.41
53526;BME280;40551;50.478;19.378;2022-07-22T04:34:32;98090.30;;;22.81;62.94
53526;BME280;40551;50.478;19.378;2022-07-22T04:37:04;98087.67;;;23.29;61.48
53526;BME280;40551;50.478;19.378;2022-07-22T04:39:37;98085.88;;;23.75;60.65
53526;BME280;40551;50.478;19.378;2022-07-22T04:42:09;98078.00;;;23.92;58.64
53526;BME280;40551;50.478;19.378;2022-07-22T04:44:42;98081.27;;;23.79;57.43
53526;BME280;40551;50.478;19.378;2022-07-22T04:47:15;98090.04;;;23.95;57.95
53526;BME280;40551;50.478;19.378;2022-07-22T04:49:47;98092.14;;;24.29;57.92
53526;BME280;40551;50.478;19.378;2022-07-22T04:52:19;98088.74;;;24.66;57.13
53526;BME280;40551;50.478;19.378;2022-07-22T04:54:51;98086.49;;;24.89;55.80
53526;BME280;40551;50.478;19.378;2022-07-22T04:57:23;98091.55;;;25.14;55.32
53526;BME280;40551;50.478;19.378;2022-07-22T04:59:54;98091.95;;;25.45;54.97
53526;BME280;40551;50.478;19.378;2022-07-22T05:02:27;98087.78;;;25.75;54.02
53526;BME280;40551;50.478;19.378;2022-07-22T05:04:59;98087.83;;;26.01;52.88
53526;BME280;40551;50.478;19.378;2022-07-22T05:07:31;98091.17;;;26.26;51.99
53526;BME280;40551;50.478;19.378;2022-07-22T05:10:03;98092.31;;;26.61;51.49
53526;BME280;40551;50.478;19.378;2022-07-22T05:12:36;98100.58;;;27.03;51.47
53526;BME280;40551;50.478;19.378;2022-07-22T05:15:09;98101.45;;;27.36;50.48
53526;BME280;40551;50.478;19.378;2022-07-22T05:17:41;98099.56;;;27.74;49.59
53526;BME280;40551;50.478;19.378;2022-07-22T05:20:20;98100.95;;;28.17;48.65
53526;BME280;40551;50.478;19.378;2022-07-22T05:22:52;98103.15;;;28.54;47.58
53526;BME280;40551;50.478;19.378;2022-07-22T05:25:26;98109.13;;;28.75;46.65
53526;BME280;40551;50.478;19.378;2022-07-22T05:27:58;98112.23;;;28.66;46.07
53526;BME280;40551;50.478;19.378;2022-07-22T05:30:34;98115.95;;;28.57;46.18
53526;BME280;40551;50.478;19.378;2022-07-22T05:33:06;98114.82;;;28.60;46.23
53526;BME280;40551;50.478;19.378;2022-07-22T05:36:00;98113.11;;;28.54;45.78
53526;BME280;40551;50.478;19.378;2022-07-22T05:38:37;98109.29;;;28.42;45.81
53526;BME280;40551;50.478;19.378;2022-07-22T05:41:09;98102.44;;;28.23;45.78
53526;BME280;40551;50.478;19.378;2022-07-22T05:43:41;98096.63;;;27.98;45.97
53526;BME280;40551;50.478;19.378;2022-07-22T05:46:13;98093.95;;;27.72;45.97
53526;BME280;40551;50.478;19.378;2022-07-22T05:48:45;98096.95;;;27.46;46.50
53526;BME280;40551;50.478;19.378;2022-07-22T05:51:16;98097.45;;;27.36;47.07
53526;BME280;40551;50.478;19.378;2022-07-22T05:53:50;98092.86;;;27.44;47.55
53526;BME280;40551;50.478;19.378;2022-07-22T05:56:22;98087.02;;;27.67;47.82
53526;BME280;40551;50.478;19.378;2022-07-22T05:58:54;98085.61;;;28.02;47.52
53526;BME280;40551;50.478;19.378;2022-07-22T06:01:27;98082.45;;;28.41;47.37
53526;BME280;40551;50.478;19.378;2022-07-22T06:04:00;98075.52;;;28.88;46.71
53526;BME280;40551;50.478;19.378;2022-07-22T06:06:33;98071.48;;;29.23;45.71
53526;BME280;40551;50.478;19.378;2022-07-22T06:09:05;98073.80;;;29.25;44.40
53526;BME280;40551;50.478;19.378;2022-07-22T06:11:37;98074.84;;;29.35;44.23
53526;BME280;40551;50.478;19.378;2022-07-22T06:14:08;98079.66;;;29.51;43.89
53526;BME280;40551;50.478;19.378;2022-07-22T06:16:40;98073.10;;;29.68;43.35
53526;BME280;40551;50.478;19.378;2022-07-22T06:19:12;98069.86;;;30.20;43.66
53526;BME280;40551;50.478;19.378;2022-07-22T06:21:44;98069.31;;;30.73;42.74
53526;BME280;40551;50.478;19.378;2022-07-22T06:24:17;98069.20;;;31.13;41.75
53526;BME280;40551;50.478;19.378;2022-07-22T06:26:56;98068.38;;;31.55;41.28
53526;BME280;40551;50.478;19.378;2022-07-22T06:29:28;98066.83;;;31.88;40.50
53526;BME280;40551;50.478;19.378;2022-07-22T06:32:00;98068.44;;;32.29;39.68
53526;BME280;40551;50.478;19.378;2022-07-22T06:34:32;98079.05;;;32.55;38.83
53526;BME280;40551;50.478;19.378;2022-07-22T06:37:08;98083.50;;;32.63;39.53
53526;BME280;40551;50.478;19.378;2022-07-22T06:39:40;98094.79;;;33.14;39.49
53526;BME280;40551;50.478;19.378;2022-07-22T06:42:16;98102.30;;;33.61;38.02
53526;BME280;40551;50.478;19.378;2022-07-22T06:44:54;98105.73;;;33.89;37.27
53526;BME280;40551;50.478;19.378;2022-07-22T07:05:43;98088.23;;;34.60;34.51
53526;BME280;40551;50.478;19.378;2022-07-22T07:12:38;98089.79;;;33.75;34.80
53526;BME280;40551;50.478;19.378;2022-07-22T07:19:54;98082.70;;;32.57;36.64
53526;BME280;40551;50.478;19.378;2022-07-22T07:26:39;98099.72;;;33.09;38.05
53526;BME280;40551;50.478;19.378;2022-07-22T07:30:12;98100.17;;;33.16;36.83
53526;BME280;40551;50.478;19.378;2022-07-22T07:43:58;98106.27;;;31.45;39.07
53526;BME280;40551;50.478;19.378;2022-07-22T07:47:33;98107.59;;;31.28;39.46
53526;BME280;40551;50.478;19.378;2022-07-22T07:54:38;98104.46;;;30.82;40.35
53526;BME280;40551;50.478;19.378;2022-07-22T07:58:06;98101.05;;;30.39;40.44
53526;BME280;40551;50.478;19.378;2022-07-22T08:01:45;98100.54;;;30.10;41.37
53526;BME280;40551;50.478;19.378;2022-07-22T08:33:13;98119.77;;;30.13;41.79
53526;BME280;40551;50.478;19.378;2022-07-22T08:36:39;98123.05;;;30.08;42.18
53526;BME280;40551;50.478;19.378;2022-07-22T08:39:54;98128.06;;;29.99;42.00
53526;BME280;40551;50.478;19.378;2022-07-22T08:46:31;98130.09;;;30.10;43.32
53526;BME280;40551;50.478;19.378;2022-07-22T08:50:29;98137.79;;;30.06;42.46
53526;BME280;40551;50.478;19.378;2022-07-22T09:03:59;98127.73;;;30.25;42.51
53526;BME280;40551;50.478;19.378;2022-07-22T09:06:37;98128.86;;;30.30;42.74
53526;BME280;40551;50.478;19.378;2022-07-22T09:09:30;98129.73;;;30.33;43.17
53526;BME280;40551;50.478;19.378;2022-07-22T09:12:18;98129.30;;;30.27;42.24
53526;BME280;40551;50.478;19.378;2022-07-22T09:15:04;98133.09;;;30.23;42.47
53526;BME280;40551;50.478;19.378;2022-07-22T09:17:55;98128.05;;;30.29;42.17
53526;BME280;40551;50.478;19.378;2022-07-22T09:20:59;98130.25;;;30.30;42.72
53526;BME280;40551;50.478;19.378;2022-07-22T09:23:43;98129.58;;;30.33;42.60
53526;BME280;40551;50.478;19.378;2022-07-22T09:26:32;98133.01;;;30.39;42.21
53526;BME280;40551;50.478;19.378;2022-07-22T09:29:25;98126.18;;;30.39;41.41
53526;BME280;40551;50.478;19.378;2022-07-22T09:32:19;98125.52;;;30.43;41.90
53526;BME280;40551;50.478;19.378;2022-07-22T09:35:02;98122.05;;;30.48;42.03
53526;BME280;40551;50.478;19.378;2022-07-22T09:37:51;98123.27;;;30.51;41.44
53526;BME280;40551;50.478;19.378;2022-07-22T09:40:27;98123.73;;;30.47;41.26
53526;BME280;40551;50.478;19.378;2022-07-22T09:43:01;98129.05;;;30.41;42.02
53526;BME280;40551;50.478;19.378;2022-07-22T09:45:34;98123.00;;;30.44;41.93
53526;BME280;40551;50.478;19.378;2022-07-22T09:48:07;98123.32;;;30.51;42.34
53526;BME280;40551;50.478;19.378;2022-07-22T09:50:56;98123.40;;;30.56;42.19
53526;BME280;40551;50.478;19.378;2022-07-22T09:53:37;98121.69;;;30.63;42.29
53526;BME280;40551;50.478;19.378;2022-07-22T09:56:14;98124.75;;;30.73;42.60
53526;BME280;40551;50.478;19.378;2022-07-22T09:58:46;98125.84;;;30.80;42.21
53526;BME280;40551;50.478;19.378;2022-07-22T10:01:26;98123.84;;;30.85;41.32
53526;BME280;40551;50.478;19.378;2022-07-22T10:03:58;98120.00;;;30.83;41.21
53526;BME280;40551;50.478;19.378;2022-07-22T10:06:33;98125.08;;;30.72;41.20
53526;BME280;40551;50.478;19.378;2022-07-22T10:09:08;98122.52;;;30.70;40.89
53526;BME280;40551;50.478;19.378;2022-07-22T10:11:45;98121.86;;;30.66;40.66
53526;BME280;40551;50.478;19.378;2022-07-22T10:14:22;98123.09;;;30.64;40.46
53526;BME280;40551;50.478;19.378;2022-07-22T10:16:58;98121.84;;;30.65;40.35
53526;BME280;40551;50.478;19.378;2022-07-22T10:19:37;98117.77;;;30.61;40.19
53526;BME280;40551;50.478;19.378;2022-07-22T10:22:45;98116.61;;;30.67;40.58
53526;BME280;40551;50.478;19.378;2022-07-22T10:25:20;98117.89;;;30.74;40.67
53526;BME280;40551;50.478;19.378;2022-07-22T10:27:54;98119.50;;;30.76;39.93
53526;BME280;40551;50.478;19.378;2022-07-22T10:30:28;98112.67;;;30.66;39.92
53526;BME280;40551;50.478;19.378;2022-07-22T10:33:09;98110.40;;;30.70;40.60
53526;BME280;40551;50.478;19.378;2022-07-22T10:35:55;98110.06;;;30.76;40.83
53526;BME280;40551;50.478;19.378;2022-07-22T10:38:29;98112.84;;;30.67;39.93
53526;BME280;40551;50.478;19.378;2022-07-22T10:41:02;98115.39;;;30.54;39.75
53526;BME280;40551;50.478;19.378;2022-07-22T10:43:47;98111.68;;;30.46;39.66
53526;BME280;40551;50.478;19.378;2022-07-22T10:46:19;98109.66;;;30.49;39.61
53526;BME280;40551;50.478;19.378;2022-07-22T10:49:11;98105.92;;;30.51;39.37
53526;BME280;40551;50.478;19.378;2022-07-22T10:52:12;98103.93;;;30.60;39.68
53526;BME280;40551;50.478;19.378;2022-07-22T10:55:19;98103.74;;;30.79;39.74
53526;BME280;40551;50.478;19.378;2022-07-22T10:57:51;98102.39;;;30.94;39.29
53526;BME280;40551;50.478;19.378;2022-07-22T11:00:24;98098.70;;;31.11;39.12
53526;BME280;40551;50.478;19.378;2022-07-22T11:02:56;98095.52;;;31.21;38.80
53526;BME280;40551;50.478;19.378;2022-07-22T11:05:30;98094.96;;;31.32;38.62
53526;BME280;40551;50.478;19.378;2022-07-22T11:08:10;98091.67;;;31.28;38.49
53526;BME280;40551;50.478;19.378;2022-07-22T11:10:48;98085.95;;;31.24;39.04
53526;BME280;40551;50.478;19.378;2022-07-22T11:13:34;98089.96;;;31.17;39.22
53526;BME280;40551;50.478;19.378;2022-07-22T11:16:17;98087.67;;;31.22;39.17
53526;BME280;40551;50.478;19.378;2022-07-22T11:18:52;98087.87;;;31.31;39.70
53526;BME280;40551;50.478;19.378;2022-07-22T11:21:27;98080.57;;;31.47;39.42
53526;BME280;40551;50.478;19.378;2022-07-22T11:24:04;98080.70;;;31.60;38.93
53526;BME280;40551;50.478;19.378;2022-07-22T11:26:39;98075.67;;;31.68;39.24
53526;BME280;40551;50.478;19.378;2022-07-22T11:29:15;98073.25;;;31.73;38.72
53526;BME280;40551;50.478;19.378;2022-07-22T11:31:47;98071.70;;;31.75;38.64
53526;BME280;40551;50.478;19.378;2022-07-22T11:34:18;98072.67;;;31.78;37.74
53526;BME280;40551;50.478;19.378;2022-07-22T11:36:51;98069.97;;;31.80;38.10
53526;BME280;40551;50.478;19.378;2022-07-22T11:39:26;98073.85;;;31.83;36.85
53526;BME280;40551;50.478;19.378;2022-07-22T11:41:59;98064.43;;;31.85;37.21
53526;BME280;40551;50.478;19.378;2022-07-22T11:44:33;98065.79;;;31.89;37.75
53526;BME280;40551;50.478;19.378;2022-07-22T11:47:06;98062.38;;;31.95;37.93
53526;BME280;40551;50.478;19.378;2022-07-22T11:49:41;98061.36;;;32.01;37.34
53526;BME280;40551;50.478;19.378;2022-07-22T11:52:17;98061.84;;;32.07;36.99
53526;BME280;40551;50.478;19.378;2022-07-22T11:54:49;98059.68;;;32.11;37.07
53526;BME280;40551;50.478;19.378;2022-07-22T11:57:20;98058.29;;;32.18;37.40
53526;BME280;40551;50.478;19.378;2022-07-22T11:59:52;98056.17;;;32.18;36.78
53526;BME280;40551;50.478;19.378;2022-07-22T12:02:24;98055.26;;;32.23;36.78
53526;BME280;40551;50.478;19.378;2022-07-22T12:04:56;98056.81;;;32.23;36.68
53526;BME280;40551;50.478;19.378;2022-07-22T12:07:35;98049.66;;;32.20;36.91
53526;BME280;40551;50.478;19.378;2022-07-22T12:10:09;98052.68;;;32.17;37.95
53526;BME280;40551;50.478;19.378;2022-07-22T12:12:41;98053.59;;;32.16;38.22
53526;BME280;40551;50.478;19.378;2022-07-22T12:15:13;98049.66;;;32.09;38.46
53526;BME280;40551;50.478;19.378;2022-07-22T12:18:24;98045.31;;;32.07;38.49
53526;BME280;40551;50.478;19.378;2022-07-22T12:20:57;98042.50;;;32.18;38.30
53526;BME280;40551;50.478;19.378;2022-07-22T12:23:28;98041.25;;;32.26;38.50
53526;BME280;40551;50.478;19.378;2022-07-22T12:26:01;98036.45;;;32.29;38.33
53526;BME280;40551;50.478;19.378;2022-07-22T12:28:33;98036.31;;;32.25;38.11
53526;BME280;40551;50.478;19.378;2022-07-22T12:31:05;98033.30;;;32.25;38.17
53526;BME280;40551;50.478;19.378;2022-07-22T12:33:37;98029.62;;;32.25;38.09
53526;BME280;40551;50.478;19.378;2022-07-22T12:36:17;98025.63;;;32.23;38.35
53526;BME280;40551;50.478;19.378;2022-07-22T12:38:49;98027.75;;;32.23;38.85
53526;BME280;40551;50.478;19.378;2022-07-22T12:41:25;98028.98;;;32.23;38.39
53526;BME280;40551;50.478;19.378;2022-07-22T12:44:00;98024.67;;;32.23;38.60
53526;BME280;40551;50.478;19.378;2022-07-22T12:46:32;98027.30;;;32.30;38.57
53526;BME280;40551;50.478;19.378;2022-07-22T12:49:06;98028.42;;;32.37;38.59
53526;BME280;40551;50.478;19.378;2022-07-22T12:51:37;98027.88;;;32.39;38.40
53526;BME280;40551;50.478;19.378;2022-07-22T12:54:09;98024.77;;;32.36;38.67
53526;BME280;40551;50.478;19.378;2022-07-22T12:56:41;98025.45;;;32.35;38.74
53526;BME280;40551;50.478;19.378;2022-07-22T12:59:12;98021.31;;;32.36;37.93
53526;BME280;40551;50.478;19.378;2022-07-22T13:01:44;98017.48;;;32.34;37.59
53526;BME280;40551;50.478;19.378;2022-07-22T13:04:16;98011.92;;;32.36;38.16
53526;BME280;40551;50.478;19.378;2022-07-22T13:06:48;98011.00;;;32.40;37.40
53526;BME280;40551;50.478;19.378;2022-07-22T13:09:20;98008.17;;;32.33;37.25
53526;BME280;40551;50.478;19.378;2022-07-22T13:11:54;98007.02;;;32.25;37.71
53526;BME280;40551;50.478;19.378;2022-07-22T13:14:27;98004.64;;;32.22;37.99
53526;BME280;40551;50.478;19.378;2022-07-22T13:17:04;97997.85;;;32.27;37.10
53526;BME280;40551;50.478;19.378;2022-07-22T13:19:36;97997.95;;;32.30;37.11
53526;BME280;40551;50.478;19.378;2022-07-22T13:22:07;97995.39;;;32.37;37.18
53526;BME280;40551;50.478;19.378;2022-07-22T13:24:39;97990.38;;;32.43;37.13
53526;BME280;40551;50.478;19.378;2022-07-22T13:27:11;97991.72;;;32.45;37.30
53526;BME280;40551;50.478;19.378;2022-07-22T13:29:42;97989.66;;;32.45;37.20
53526;BME280;40551;50.478;19.378;2022-07-22T13:32:14;97993.02;;;32.44;36.54
53526;BME280;40551;50.478;19.378;2022-07-22T13:34:53;97991.18;;;32.44;37.01
53526;BME280;40551;50.478;19.378;2022-07-22T13:37:25;97994.53;;;32.39;36.08
53526;BME280;40551;50.478;19.378;2022-07-22T13:39:57;97991.53;;;32.35;36.22
53526;BME280;40551;50.478;19.378;2022-07-22T13:42:28;97990.44;;;32.36;35.81
53526;BME280;40551;50.478;19.378;2022-07-22T13:45:00;97988.06;;;32.40;36.50
53526;BME280;40551;50.478;19.378;2022-07-22T13:47:33;97989.30;;;32.47;35.95
53526;BME280;40551;50.478;19.378;2022-07-22T13:50:06;97986.49;;;32.55;36.20
53526;BME280;40551;50.478;19.378;2022-07-22T13:52:38;97986.42;;;32.60;36.38
53526;BME280;40551;50.478;19.378;2022-07-22T13:55:11;97981.51;;;32.62;35.69
53526;BME280;40551;50.478;19.378;2022-07-22T13:57:43;97980.85;;;32.63;35.70
53526;BME280;40551;50.478;19.378;2022-07-22T14:00:17;97977.20;;;32.60;36.26
53526;BME280;40551;50.478;19.378;2022-07-22T14:02:49;97976.67;;;32.59;35.70
53526;BME280;40551;50.478;19.378;2022-07-22T14:05:21;97976.98;;;32.60;35.87
53526;BME280;40551;50.478;19.378;2022-07-22T14:07:53;97976.11;;;32.63;35.79
53526;BME280;40551;50.478;19.378;2022-07-22T14:10:24;97970.70;;;32.69;35.73
53526;BME280;40551;50.478;19.378;2022-07-22T14:12:56;97972.46;;;32.72;35.40
53526;BME280;40551;50.478;19.378;2022-07-22T14:15:28;97972.14;;;32.73;35.69
53526;BME280;40551;50.478;19.378;2022-07-22T14:18:00;97976.18;;;32.73;34.64
53526;BME280;40551;50.478;19.378;2022-07-22T14:20:32;97970.89;;;32.62;35.16
53526;BME280;40551;50.478;19.378;2022-07-22T14:23:04;97971.81;;;32.59;35.37
53526;BME280;40551;50.478;19.378;2022-07-22T14:25:37;97970.27;;;32.56;34.93
53526;BME280;40551;50.478;19.378;2022-07-22T14:28:09;97967.95;;;32.55;34.62
53526;BME280;40551;50.478;19.378;2022-07-22T14:31:00;97967.98;;;32.50;34.62
53526;BME280;40551;50.478;19.378;2022-07-22T14:33:32;97967.65;;;32.50;34.70
53526;BME280;40551;50.478;19.378;2022-07-22T14:36:04;97966.41;;;32.48;34.18
53526;BME280;40551;50.478;19.378;2022-07-22T14:38:36;97965.14;;;32.48;35.11
53526;BME280;40551;50.478;19.378;2022-07-22T14:41:08;97959.89;;;32.49;35.15
53526;BME280;40551;50.478;19.378;2022-07-22T14:43:40;97962.80;;;32.50;35.96
53526;BME280;40551;50.478;19.378;2022-07-22T14:46:12;97961.24;;;32.50;36.38
53526;BME280;40551;50.478;19.378;2022-07-22T14:48:45;97960.36;;;32.52;36.78
53526;BME280;40551;50.478;19.378;2022-07-22T14:51:23;97962.27;;;32.50;37.60
53526;BME280;40551;50.478;19.378;2022-07-22T14:53:54;97959.08;;;32.50;35.49
53526;BME280;40551;50.478;19.378;2022-07-22T14:56:27;97958.61;;;32.44;34.61
53526;BME280;40551;50.478;19.378;2022-07-22T14:58:58;97955.10;;;32.40;35.23
53526;BME280;40551;50.478;19.378;2022-07-22T15:01:32;97954.85;;;32.35;35.31
53526;BME280;40551;50.478;19.378;2022-07-22T15:04:04;97951.47;;;32.32;35.53
53526;BME280;40551;50.478;19.378;2022-07-22T15:06:37;97953.02;;;32.34;35.58